Time;durP1;ratioP1;P1;durP2;ratioP2;P2;SDS_P1;SDS_P2;PMS_P1;PMS_P2;Temp;Humidity;BMP_temperature;BMP_pressure;BME280_temperature;BME280_humidity;BME280_pressure;Samples;Min_cycle;Max_cycle;Signal;HPM_P1;HPM_P2
2021/05/21 00:01:50;;;;;;;7.20;4.63;;;13.60;79.20;;;;;;5046091;28;20077;-62
2021/05/21 00:04:18;;;;;;;6.20;4.65;;;13.60;79.40;;;;;;5033304;28;20143;-63
2021/05/21 00:06:47;;;;;;;8.20;3.30;;;13.60;80.20;;;;;;5035490;28;20509;-72
2021/05/21 00:09:15;;;;;;;6.93;3.28;;;13.60;79.60;;;;;;5036033;28;20362;-72
2021/05/21 00:11:42;;;;;;;7.88;3.30;;;13.70;80.90;;;;;;5044912;28;20098;-64
2021/05/21 00:14:09;;;;;;;5.78;3.60;;;13.70;81.50;;;;;;5044843;28;20450;-69
2021/05/21 00:16:36;;;;;;;7.45;3.92;;;13.60;83.30;;;;;;5049254;28;20031;-70
2021/05/21 00:19:04;;;;;;;9.18;3.88;;;13.60;85.30;;;;;;5049468;28;20044;-64
2021/05/21 00:21:34;;;;;;;6.95;4.78;;;13.60;86.00;;;;;;5048591;28;20077;-63
2021/05/21 00:24:01;;;;;;;6.32;3.50;;;13.60;87.80;;;;;;5046780;28;20108;-70
2021/05/21 00:26:29;;;;;;;7.47;4.40;;;13.70;89.70;;;;;;5047556;28;20025;-63
2021/05/21 00:28:56;;;;;;;6.25;4.55;;;13.70;89.80;;;;;;5049614;28;20055;-70
2021/05/21 00:31:24;;;;;;;9.85;5.22;;;13.70;90.40;;;;;;5047883;28;20021;-71
2021/05/21 00:33:51;;;;;;;9.77;5.20;;;13.80;91.10;;;;;;5037925;28;20029;-70
2021/05/21 00:36:18;;;;;;;8.00;4.63;;;13.80;91.50;;;;;;5036627;28;20031;-70
2021/05/21 00:38:46;;;;;;;9.13;5.80;;;13.70;92.00;;;;;;5049113;28;20033;-61
2021/05/21 00:41:13;;;;;;;7.10;5.85;;;13.70;92.80;;;;;;5049280;28;20126;-63
2021/05/21 00:43:40;;;;;;;9.00;5.90;;;13.80;92.90;;;;;;5046149;28;20074;-72
2021/05/21 00:46:07;;;;;;;8.88;6.95;;;13.80;92.70;;;;;;5048507;28;20021;-71
2021/05/21 00:48:35;;;;;;;11.10;9.88;;;13.90;93.30;;;;;;5048429;28;20481;-68
2021/05/21 00:51:02;;;;;;;19.83;17.75;;;13.90;93.00;;;;;;5047662;28;20037;-70
2021/05/21 00:53:32;;;;;;;26.30;19.73;;;14.00;93.40;;;;;;5047951;28;20024;-71
2021/05/21 00:56:00;;;;;;;15.90;14.20;;;14.10;93.60;;;;;;5048111;28;20048;-71
2021/05/21 00:58:28;;;;;;;19.90;15.02;;;14.30;93.80;;;;;;5047307;28;20021;-62
2021/05/21 01:00:56;;;;;;;9.30;8.25;;;14.40;93.00;;;;;;5048647;28;20440;-72
2021/05/21 01:03:24;;;;;;;8.63;7.60;;;14.50;93.30;;;;;;5048847;28;20021;-63
2021/05/21 01:05:52;;;;;;;10.55;5.88;;;14.60;93.50;;;;;;5048606;28;20052;-71
2021/05/21 01:08:20;;;;;;;7.30;5.15;;;14.70;93.40;;;;;;5047922;28;20021;-70
2021/05/21 01:10:47;;;;;;;6.35;4.32;;;14.80;93.10;;;;;;5048619;28;20491;-68
2021/05/21 01:13:15;;;;;;;6.03;4.65;;;14.70;93.00;;;;;;5035583;28;20064;-64
2021/05/21 01:15:43;;;;;;;10.13;5.30;;;14.70;93.30;;;;;;5048791;28;20017;-62
2021/05/21 01:18:11;;;;;;;6.35;4.75;;;14.70;93.70;;;;;;5049119;28;20025;-61
2021/05/21 01:20:39;;;;;;;10.10;5.20;;;14.70;93.60;;;;;;5048892;28;20493;-69
2021/05/21 01:23:07;;;;;;;9.88;5.40;;;14.80;93.90;;;;;;5048663;28;20028;-69
2021/05/21 01:25:36;;;;;;;13.57;8.52;;;14.90;94.00;;;;;;5038805;28;20029;-70
2021/05/21 01:28:05;;;;;;;9.48;5.82;;;14.90;94.10;;;;;;5046337;28;20024;-70
2021/05/21 01:30:32;;;;;;;10.32;5.82;;;15.00;93.80;;;;;;5048584;28;20500;-70
2021/05/21 01:33:09;;;;;;;8.90;5.68;;;15.00;93.80;;;;;;5045978;28;20485;-68
2021/05/21 01:35:37;;;;;;;8.15;5.45;;;15.10;93.60;;;;;;5048770;28;20024;-61
2021/05/21 01:38:04;;;;;;;13.45;6.22;;;15.20;93.90;;;;;;5046806;28;20083;-61
2021/05/21 01:40:32;;;;;;;8.65;6.25;;;15.30;94.10;;;;;;5049082;28;20100;-70
2021/05/21 01:43:02;;;;;;;11.73;6.70;;;15.40;93.80;;;;;;5045156;28;20386;-70
2021/05/21 01:45:30;;;;;;;12.07;5.25;;;15.50;93.40;;;;;;5048829;28;20028;-70
2021/05/21 01:48:00;;;;;;;8.50;5.93;;;15.50;92.90;;;;;;5048139;28;20366;-70
2021/05/21 01:50:28;;;;;;;9.57;5.22;;;15.40;93.40;;;;;;5048270;28;20028;-69
2021/05/21 01:52:55;;;;;;;10.93;5.82;;;15.50;93.10;;;;;;5047610;28;20064;-62
2021/05/21 01:55:23;;;;;;;10.43;6.50;;;15.50;92.60;;;;;;5047934;28;20025;-70
2021/05/21 01:57:50;;;;;;;8.38;6.60;;;15.50;93.10;;;;;;5047038;28;20024;-62
2021/05/21 02:00:17;;;;;;;13.40;8.52;;;15.50;93.50;;;;;;5047447;28;20025;-68
2021/05/21 02:02:45;;;;;;;16.20;7.65;;;15.70;92.80;;;;;;5047978;28;20032;-70
2021/05/21 02:05:12;;;;;;;16.60;8.63;;;15.80;92.80;;;;;;5037374;28;20028;-62
2021/05/21 02:07:40;;;;;;;12.98;7.25;;;16.00;92.80;;;;;;5047726;28;20489;-62
2021/05/21 02:10:12;;;;;;;10.68;6.07;;;16.00;91.60;;;;;;5034996;28;20031;-60
2021/05/21 02:12:46;;;;;;;13.25;5.97;;;16.00;92.10;;;;;;5045697;28;20025;-62
2021/05/21 02:15:14;;;;;;;10.02;6.22;;;16.10;92.50;;;;;;5035113;28;20040;-68
2021/05/21 02:17:42;;;;;;;15.52;6.03;;;16.20;91.90;;;;;;5044885;28;20132;-64
2021/05/21 02:20:13;;;;;;;12.10;5.45;;;16.30;91.70;;;;;;5080496;23;20055;-62
2021/05/21 02:22:41;;;;;;;9.13;5.13;;;16.30;90.80;;;;;;5075969;28;20020;-71
2021/05/21 02:25:10;;;;;;;11.48;4.85;;;16.40;91.30;;;;;;5075351;28;20024;-70
2021/05/21 02:27:38;;;;;;;12.07;4.63;;;16.50;90.30;;;;;;5076424;28;20017;-70
2021/05/21 02:30:10;;;;;;;11.93;5.28;;;16.50;89.40;;;;;;5076520;28;20028;-69
2021/05/21 02:32:41;;;;;;;7.82;4.13;;;16.70;89.80;;;;;;5073776;28;20052;-62
2021/05/21 02:35:10;;;;;;;14.27;4.95;;;16.70;87.70;;;;;;5075958;28;20112;-62
2021/05/21 02:37:39;;;;;;;9.68;4.00;;;16.80;88.50;;;;;;5075789;28;20060;-68
2021/05/21 02:40:11;;;;;;;9.23;3.55;;;16.90;88.50;;;;;;5076478;28;20036;-70
2021/05/21 02:42:39;;;;;;;6.47;4.53;;;17.10;87.70;;;;;;5077195;28;20028;-62
2021/05/21 02:45:07;;;;;;;9.43;4.07;;;17.10;86.30;;;;;;5055417;28;20024;-71
2021/05/21 02:47:36;;;;;;;10.70;4.00;;;17.30;86.30;;;;;;5073183;28;20025;-65
2021/05/21 02:50:05;;;;;;;8.90;4.55;;;17.30;87.30;;;;;;5075503;28;20107;-68
2021/05/21 02:52:33;;;;;;;13.95;4.60;;;17.30;85.30;;;;;;5073588;28;20107;-69
2021/05/21 02:55:00;;;;;;;10.20;4.22;;;17.40;84.40;;;;;;5069708;28;20032;-69
2021/05/21 02:57:28;;;;;;;7.43;4.00;;;17.40;85.40;;;;;;5076883;28;20051;-62
2021/05/21 02:59:55;;;;;;;12.20;5.07;;;17.40;84.70;;;;;;5075846;28;20113;-71
2021/05/21 03:02:24;;;;;;;6.50;3.70;;;17.40;83.90;;;;;;5069305;28;20023;-62
2021/05/21 03:04:52;;;;;;;8.45;4.10;;;17.30;84.30;;;;;;5075398;28;20047;-62
2021/05/21 03:07:20;;;;;;;8.18;4.35;;;17.30;84.70;;;;;;5076904;28;20017;-61
2021/05/21 03:09:47;;;;;;;10.38;4.95;;;17.30;83.60;;;;;;5074041;28;20025;-69
2021/05/21 03:12:18;;;;;;;9.73;4.22;;;17.40;83.90;;;;;;5073912;28;20349;-69
2021/05/21 03:14:45;;;;;;;11.35;6.30;;;17.60;83.00;;;;;;5072970;28;20024;-62
2021/05/21 03:17:12;;;;;;;6.38;3.45;;;17.70;82.20;;;;;;5076030;28;20112;-62
2021/05/21 03:19:41;;;;;;;10.32;3.38;;;17.80;81.20;;;;;;5069376;28;20100;-62
2021/05/21 03:22:09;;;;;;;12.10;3.65;;;17.90;80.50;;;;;;5075500;28;20041;-67
2021/05/21 03:24:41;;;;;;;9.27;4.23;;;18.10;79.10;;;;;;4545682;28;10001229;-62
2021/05/21 03:27:08;;;;;;;8.82;3.35;;;18.20;79.10;;;;;;5064120;28;20330;-70
2021/05/21 03:29:36;;;;;;;8.93;3.67;;;18.30;76.70;;;;;;5063808;28;20049;-61
2021/05/21 03:32:03;;;;;;;12.07;4.00;;;18.40;76.80;;;;;;5064002;28;20025;-70
2021/05/21 03:34:30;;;;;;;10.40;3.75;;;18.40;78.00;;;;;;5044977;28;20032;-69
2021/05/21 03:36:57;;;;;;;9.57;4.25;;;18.30;78.40;;;;;;5045440;28;20098;-70
2021/05/21 03:39:28;;;;;;;10.48;3.95;;;18.20;77.40;;;;;;5063328;28;20086;-69
2021/05/21 03:41:55;;;;;;;14.70;5.45;;;18.10;77.60;;;;;;5046346;28;20050;-69
2021/05/21 03:44:23;;;;;;;13.48;4.80;;;18.00;78.20;;;;;;5045914;28;20025;-62
2021/05/21 03:46:50;;;;;;;9.88;4.40;;;17.90;78.30;;;;;;5044502;28;20033;-62
2021/05/21 03:49:17;;;;;;;11.35;3.88;;;17.90;79.70;;;;;;5063361;28;20388;-61
2021/05/21 03:51:45;;;;;;;16.80;4.25;;;17.80;78.70;;;;;;5047945;28;20374;-68
2021/05/21 03:54:12;;;;;;;12.35;4.43;;;17.70;79.80;;;;;;5048677;28;20071;-61
2021/05/21 03:56:39;;;;;;;12.05;4.10;;;17.60;80.00;;;;;;5067293;28;20032;-69
2021/05/21 03:59:07;;;;;;;10.73;3.67;;;17.50;79.70;;;;;;5049178;28;20069;-71
2021/05/21 04:01:35;;;;;;;11.13;3.20;;;17.50;78.80;;;;;;5066533;28;20031;-68
2021/05/21 04:04:05;;;;;;;12.00;4.05;;;17.30;78.50;;;;;;5067007;28;20135;-62
2021/05/21 04:06:33;;;;;;;17.25;4.20;;;17.30;79.20;;;;;;5067882;28;20104;-64
2021/05/21 04:09:06;;;;;;;10.18;3.78;;;17.20;79.20;;;;;;5048060;28;20361;-63
2021/05/21 04:11:37;;;;;;;11.95;4.10;;;17.20;77.50;;;;;;5066146;28;20061;-71
2021/05/21 04:14:06;;;;;;;15.52;4.55;;;17.20;78.60;;;;;;5065268;28;20055;-73
2021/05/21 04:16:34;;;;;;;18.73;5.10;;;17.20;77.50;;;;;;5067279;28;20031;-61
2021/05/21 04:19:02;;;;;;;16.23;5.90;;;17.20;77.20;;;;;;5050241;28;20057;-71
2021/05/21 04:21:29;;;;;;;18.00;5.82;;;17.20;77.30;;;;;;5049534;28;20520;-70
2021/05/21 04:23:57;;;;;;;58.92;33.50;;;17.10;77.30;;;;;;5054954;28;20029;-65
2021/05/21 04:26:24;;;;;;;12.00;4.90;;;17.10;77.30;;;;;;5058355;28;20497;-70
2021/05/21 04:28:51;;;;;;;17.05;4.30;;;17.10;77.50;;;;;;5065040;28;20016;-71
2021/05/21 04:31:19;;;;;;;12.18;4.10;;;17.10;77.30;;;;;;5065253;28;20017;-61
2021/05/21 04:33:50;;;;;;;12.40;4.25;;;17.10;77.30;;;;;;5065027;28;20545;-62
2021/05/21 04:36:18;;;;;;;12.13;3.47;;;17.00;78.40;;;;;;5065227;28;20024;-71
2021/05/21 04:38:49;;;;;;;12.27;3.70;;;17.00;77.20;;;;;;5065023;28;20480;-61
2021/05/21 04:41:16;;;;;;;14.85;3.50;;;16.90;77.10;;;;;;5064589;28;20481;-69
2021/05/21 04:43:46;;;;;;;11.07;3.17;;;16.80;77.30;;;;;;5065910;28;20350;-70
2021/05/21 04:46:18;;;;;;;15.35;3.80;;;16.70;77.70;;;;;;5064213;28;20311;-61
2021/05/21 04:48:46;;;;;;;15.85;5.50;;;16.70;77.50;;;;;;5064786;28;20035;-62
2021/05/21 04:51:16;;;;;;;11.40;4.55;;;16.60;77.30;;;;;;5065126;28;20366;-70
2021/05/21 04:53:43;;;;;;;11.38;4.68;;;16.70;78.50;;;;;;5065890;28;20020;-70
2021/05/21 04:56:12;;;;;;;12.82;4.53;;;16.60;78.80;;;;;;5064343;28;20028;-69
2021/05/21 04:58:39;;;;;;;12.68;4.63;;;16.70;77.70;;;;;;5064982;28;20494;-69
2021/05/21 05:01:06;;;;;;;9.02;3.33;;;16.70;77.30;;;;;;5063820;28;20032;-60
2021/05/21 05:03:34;;;;;;;15.88;4.43;;;16.70;77.60;;;;;;5059378;28;20059;-62
2021/05/21 05:06:01;;;;;;;20.38;5.13;;;16.70;77.50;;;;;;5066542;28;20033;-64
2021/05/21 05:08:28;;;;;;;10.82;4.55;;;16.80;77.70;;;;;;5067247;28;20032;-71
2021/05/21 05:10:56;;;;;;;12.68;4.50;;;16.90;77.10;;;;;;5066138;28;20044;-71
2021/05/21 05:13:23;;;;;;;18.80;6.70;;;16.90;75.80;;;;;;5064135;28;20396;-64
2021/05/21 05:15:50;;;;;;;15.38;4.32;;;16.90;75.90;;;;;;5065267;28;20029;-70
2021/05/21 05:18:21;;;;;;;16.92;5.85;;;16.90;77.00;;;;;;5067144;28;20266;-67
2021/05/21 05:20:48;;;;;;;17.25;7.78;;;17.00;76.60;;;;;;5075904;28;20078;-67
2021/05/21 05:23:18;;;;;;;15.82;4.93;;;17.00;76.30;;;;;;5072898;28;20028;-71
2021/05/21 05:25:47;;;;;;;13.68;4.93;;;17.00;76.40;;;;;;5074782;28;20024;-64
2021/05/21 05:28:16;;;;;;;15.63;4.68;;;17.10;76.50;;;;;;5072196;28;20194;-61
2021/05/21 05:30:43;;;;;;;13.57;4.28;;;17.10;75.20;;;;;;5073801;28;20020;-70
2021/05/21 05:33:11;;;;;;;10.70;3.45;;;17.00;75.40;;;;;;5068915;28;20579;-72
2021/05/21 05:35:39;;;;;;;15.85;5.00;;;16.90;75.90;;;;;;5076187;28;20477;-75
2021/05/21 05:38:10;;;;;;;15.60;4.72;;;17.00;76.60;;;;;;5053096;28;20430;-75
2021/05/21 05:40:38;;;;;;;15.70;4.22;;;17.00;77.10;;;;;;5076617;28;20024;-74
2021/05/21 05:43:06;;;;;;;14.63;4.65;;;16.90;76.40;;;;;;5070358;28;20016;-62
2021/05/21 05:45:33;;;;;;;10.93;3.53;;;16.80;75.80;;;;;;5068883;28;20031;-66
2021/05/21 05:48:02;;;;;;;11.65;4.18;;;16.80;76.80;;;;;;5070788;28;20028;-63
2021/05/21 05:50:29;;;;;;;8.13;3.45;;;16.80;76.90;;;;;;5073565;28;20028;-70
2021/05/21 05:52:56;;;;;;;9.98;3.40;;;16.70;77.00;;;;;;5078340;28;20028;-78
2021/05/21 05:55:23;;;;;;;13.85;3.45;;;16.60;76.30;;;;;;5074223;28;20032;-73
2021/05/21 05:57:51;;;;;;;15.20;4.63;;;16.60;77.00;;;;;;5072873;28;20078;-69
2021/05/21 06:00:19;;;;;;;8.10;3.33;;;16.60;76.70;;;;;;5073674;28;21348;-67
2021/05/21 06:02:46;;;;;;;13.70;4.32;;;16.60;76.70;;;;;;5075536;28;20073;-66
2021/05/21 06:05:13;;;;;;;7.40;3.38;;;16.60;75.90;;;;;;5070241;28;20075;-71
2021/05/21 06:07:41;;;;;;;9.23;3.67;;;16.60;76.60;;;;;;5055135;28;20054;-74
2021/05/21 06:10:08;;;;;;;10.15;3.20;;;16.50;76.30;;;;;;5074407;28;20109;-65
2021/05/21 06:12:36;;;;;;;16.65;4.13;;;16.60;76.70;;;;;;5051501;28;20532;-61
2021/05/21 06:15:04;;;;;;;10.85;3.70;;;16.50;76.10;;;;;;5072140;28;20039;-65
2021/05/21 06:17:31;;;;;;;16.08;4.72;;;16.50;76.50;;;;;;5073246;28;20036;-69
2021/05/21 06:19:58;;;;;;;13.68;4.07;;;16.50;77.20;;;;;;5072779;28;20086;-62
2021/05/21 06:22:29;;;;;;;11.02;4.03;;;16.40;76.40;;;;;;5072940;28;20056;-70
2021/05/21 06:25:05;;;;;;;18.23;4.57;;;16.40;76.60;;;;;;5053948;28;20489;-71
2021/05/21 06:27:32;;;;;;;13.07;4.57;;;16.30;77.60;;;;;;5045965;28;20020;-70
2021/05/21 06:30:06;;;;;;;16.38;4.60;;;16.30;77.70;;;;;;5052298;28;20028;-70
2021/05/21 06:32:33;;;;;;;14.93;4.47;;;16.30;77.80;;;;;;5066969;28;20119;-68
2021/05/21 06:35:00;;;;;;;11.55;3.83;;;16.20;77.60;;;;;;5068485;28;20062;-74
2021/05/21 06:37:31;;;;;;;10.93;3.67;;;16.20;77.60;;;;;;5070810;28;20123;-67
2021/05/21 06:39:58;;;;;;;13.95;3.92;;;16.10;77.10;;;;;;5070540;28;20538;-68
2021/05/21 06:42:26;;;;;;;11.35;4.07;;;16.10;77.40;;;;;;5069007;28;20031;-72
2021/05/21 06:44:53;;;;;;;9.98;3.72;;;16.00;76.40;;;;;;5068674;28;20024;-67
2021/05/21 06:47:21;;;;;;;13.38;3.92;;;16.00;76.40;;;;;;5068977;28;20042;-68
2021/05/21 06:49:48;;;;;;;9.85;3.78;;;16.00;77.30;;;;;;5068673;28;20103;-67
2021/05/21 06:52:16;;;;;;;12.13;3.63;;;16.00;77.50;;;;;;5062983;28;20042;-72
2021/05/21 06:54:45;;;;;;;10.48;3.75;;;15.90;77.50;;;;;;5062997;28;20370;-66
2021/05/21 06:57:13;;;;;;;10.18;3.75;;;15.90;78.10;;;;;;5064156;28;20016;-66
2021/05/21 06:59:40;;;;;;;10.25;3.65;;;15.90;77.30;;;;;;5068463;28;20028;-69
2021/05/21 07:02:08;;;;;;;9.00;3.33;;;15.80;77.10;;;;;;5051623;28;20032;-71
2021/05/21 07:04:36;;;;;;;9.45;3.20;;;15.80;77.00;;;;;;5067685;28;20025;-67
2021/05/21 07:07:03;;;;;;;12.13;4.65;;;15.80;76.90;;;;;;5040137;28;20025;-68
2021/05/21 07:09:31;;;;;;;11.95;3.95;;;15.80;77.20;;;;;;5040727;28;20115;-66
2021/05/21 07:11:58;;;;;;;11.75;3.92;;;15.80;76.60;;;;;;5050512;28;20031;-69
2021/05/21 07:14:25;;;;;;;14.07;4.50;;;15.70;77.40;;;;;;5046543;28;20140;-77
2021/05/21 07:16:53;;;;;;;14.88;4.15;;;15.70;77.60;;;;;;5047451;28;20033;-68
2021/05/21 07:19:21;;;;;;;9.55;3.70;;;15.60;78.20;;;;;;5049958;28;20072;-70
2021/05/21 07:21:48;;;;;;;14.32;3.78;;;15.60;77.20;;;;;;5052239;28;20024;-69
2021/05/21 07:24:19;;;;;;;11.25;3.72;;;15.60;77.00;;;;;;5050900;28;20027;-70
2021/05/21 07:26:50;;;;;;;8.88;3.80;;;15.60;77.30;;;;;;5057529;28;20455;-66
2021/05/21 07:29:20;;;;;;;10.75;3.83;;;15.60;77.60;;;;;;5074788;28;20009;-70
2021/05/21 07:31:47;;;;;;;11.95;3.63;;;15.60;77.40;;;;;;5071755;28;20032;-70
2021/05/21 07:34:14;;;;;;;15.05;3.53;;;15.60;76.70;;;;;;5050011;28;20115;-75
2021/05/21 07:36:42;;;;;;;13.32;4.57;;;15.60;77.10;;;;;;5067926;28;20547;-76
2021/05/21 07:39:09;;;;;;;14.65;3.83;;;15.50;77.50;;;;;;5067800;28;20491;-70
2021/05/21 07:41:36;;;;;;;9.05;3.38;;;15.50;77.80;;;;;;5069352;28;20024;-72
2021/05/21 07:44:04;;;;;;;16.45;4.05;;;15.40;78.10;;;;;;5056943;28;20054;-69
2021/05/21 07:46:35;;;;;;;12.73;3.75;;;15.40;78.20;;;;;;5068820;28;20024;-70
2021/05/21 07:49:02;;;;;;;11.23;4.40;;;15.40;77.90;;;;;;5055783;28;20052;-68
2021/05/21 07:51:32;;;;;;;9.43;3.83;;;15.40;78.40;;;;;;5076250;28;20020;-71
2021/05/21 07:54:00;;;;;;;10.55;3.92;;;15.40;78.10;;;;;;5067091;28;20388;-71
2021/05/21 07:56:27;;;;;;;13.70;4.30;;;15.40;77.80;;;;;;5066814;28;20378;-74
2021/05/21 07:58:54;;;;;;;12.40;2.90;;;15.40;78.10;;;;;;5049833;28;20441;-71
2021/05/21 08:01:22;;;;;;;8.70;3.85;;;15.40;77.90;;;;;;5052007;28;20020;-71
2021/05/21 08:03:49;;;;;;;14.43;3.95;;;15.40;78.70;;;;;;5068746;28;20442;-73
2021/05/21 08:06:17;;;;;;;11.10;3.88;;;15.30;78.00;;;;;;5049544;28;20032;-74
2021/05/21 08:08:44;;;;;;;13.40;3.65;;;15.40;78.40;;;;;;5048773;28;20071;-72
2021/05/21 08:11:12;;;;;;;9.75;3.53;;;15.30;78.20;;;;;;5068889;28;20028;-75
2021/05/21 08:13:40;;;;;;;8.73;3.83;;;15.30;78.60;;;;;;5065143;28;20477;-71
2021/05/21 08:16:10;;;;;;;14.68;7.05;;;15.30;78.70;;;;;;5068867;28;20131;-73
2021/05/21 08:18:38;;;;;;;14.00;4.18;;;15.40;78.50;;;;;;5072164;28;20606;-74
2021/05/21 08:21:07;;;;;;;15.00;4.82;;;15.40;78.10;;;;;;5066738;28;20441;-74
2021/05/21 08:23:37;;;;;;;17.58;4.93;;;15.40;78.50;;;;;;5062843;28;20339;-68
2021/05/21 08:26:06;;;;;;;13.57;4.43;;;15.30;78.50;;;;;;5065331;28;20111;-69
2021/05/21 08:28:35;;;;;;;13.35;4.20;;;15.30;78.00;;;;;;5068868;28;20086;-72
2021/05/21 08:31:04;;;;;;;13.20;4.20;;;15.30;78.10;;;;;;5064050;28;20096;-67
2021/05/21 08:33:31;;;;;;;15.02;4.00;;;15.20;78.00;;;;;;5066762;28;20044;-69
2021/05/21 08:35:59;;;;;;;10.95;3.60;;;15.30;78.20;;;;;;5052067;28;20024;-68
2021/05/21 08:38:26;;;;;;;9.73;3.42;;;15.30;78.00;;;;;;5067732;28;20032;-69
2021/05/21 08:40:54;;;;;;;7.57;4.03;;;15.20;78.60;;;;;;5065292;28;20027;-72
2021/05/21 08:43:21;;;;;;;9.40;3.38;;;15.20;79.10;;;;;;5058504;28;20032;-69
2021/05/21 08:45:49;;;;;;;13.65;4.63;;;15.20;78.30;;;;;;5062028;28;20115;-70
2021/05/21 08:48:19;;;;;;;11.13;3.65;;;15.20;78.70;;;;;;5063884;28;20029;-67
2021/05/21 08:50:48;;;;;;;13.98;3.95;;;15.20;78.40;;;;;;5057568;28;20032;-69
2021/05/21 08:53:16;;;;;;;14.05;4.35;;;15.10;78.20;;;;;;5063294;28;20055;-67
2021/05/21 08:55:43;;;;;;;20.13;7.03;;;15.00;79.00;;;;;;5044575;28;20032;-70
2021/05/21 08:58:14;;;;;;;12.20;4.30;;;14.90;79.40;;;;;;5060983;28;20024;-66
2021/05/21 09:00:42;;;;;;;12.98;4.43;;;14.80;80.50;;;;;;5063505;28;20472;-66
2021/05/21 09:03:29;;;;;;;11.70;4.05;;;14.70;80.70;;;;;;5045177;28;20404;-62
2021/05/21 09:06:16;;;;;;;13.02;4.10;;;14.60;80.80;;;;;;5062871;28;20431;-68
2021/05/21 09:08:54;;;;;;;11.40;4.03;;;14.60;81.00;;;;;;5041941;28;20024;-64
2021/05/21 09:11:30;;;;;;;11.07;4.63;;;14.40;81.80;;;;;;5045644;28;20024;-66
2021/05/21 09:14:08;;;;;;;9.57;4.00;;;14.40;82.20;;;;;;5069417;28;20491;-66
2021/05/21 09:16:40;;;;;;;11.35;4.40;;;14.20;82.60;;;;;;5071302;28;20071;-72
2021/05/21 09:19:16;;;;;;;11.05;4.32;;;14.10;83.40;;;;;;5065340;28;20059;-69
2021/05/21 09:22:07;;;;;;;14.05;4.55;;;14.10;83.00;;;;;;5045319;28;20040;-66
2021/05/21 09:24:43;;;;;;;11.77;4.32;;;13.90;83.60;;;;;;5066217;28;20037;-74
2021/05/21 09:27:12;;;;;;;13.02;5.00;;;13.80;84.00;;;;;;5072762;28;20062;-66
2021/05/21 09:29:51;;;;;;;12.15;4.00;;;13.70;84.60;;;;;;5070752;28;20025;-68
2021/05/21 09:32:35;;;;;;;12.63;5.28;;;13.60;85.10;;;;;;5070620;28;20035;-70
2021/05/21 09:35:13;;;;;;;12.23;4.28;;;13.50;85.80;;;;;;5072037;28;20043;-73
2021/05/21 09:37:55;;;;;;;11.95;4.45;;;13.40;86.10;;;;;;5069293;28;20484;-70
2021/05/21 09:40:28;;;;;;;10.80;4.80;;;13.20;86.70;;;;;;5066220;28;20086;-65
2021/05/21 09:42:57;;;;;;;14.18;4.70;;;13.20;86.30;;;;;;5065524;28;20029;-73
2021/05/21 09:45:39;;;;;;;15.60;5.75;;;13.10;87.30;;;;;;5047885;28;20021;-73
2021/05/21 09:48:14;;;;;;;13.83;5.10;;;13.00;87.30;;;;;;5047945;28;20035;-65
2021/05/21 09:50:51;;;;;;;11.38;5.28;;;13.00;87.90;;;;;;5060371;28;20020;-67
2021/05/21 09:53:20;;;;;;;17.10;4.82;;;12.90;88.00;;;;;;5064163;28;20028;-72
2021/05/21 09:55:52;;;;;;;19.48;5.25;;;12.80;88.10;;;;;;5062921;28;20543;-70
2021/05/21 09:58:32;;;;;;;12.32;4.68;;;12.70;88.80;;;;;;5062740;28;20078;-68
2021/05/21 10:01:20;;;;;;;15.65;5.43;;;12.70;88.50;;;;;;5043042;28;20040;-68
2021/05/21 10:03:56;;;;;;;14.07;5.35;;;12.50;88.90;;;;;;5060338;28;20024;-66
2021/05/21 10:06:28;;;;;;;10.82;5.40;;;12.50;89.40;;;;;;5064140;28;20085;-68
2021/05/21 10:08:58;;;;;;;11.15;5.65;;;12.40;89.80;;;;;;5063097;28;20028;-67
2021/05/21 10:11:27;;;;;;;15.13;5.50;;;12.30;90.00;;;;;;5060567;28;20488;-65
2021/05/21 10:13:56;;;;;;;14.23;4.90;;;12.20;90.30;;;;;;5062191;28;20021;-67
2021/05/21 10:16:23;;;;;;;11.77;5.10;;;12.20;90.50;;;;;;5054780;28;20280;-68
2021/05/21 10:18:53;;;;;;;12.77;5.10;;;12.10;90.50;;;;;;5041168;28;20163;-67
2021/05/21 10:21:22;;;;;;;18.20;5.78;;;12.10;90.70;;;;;;5061244;28;20313;-68
2021/05/21 10:24:02;;;;;;;15.88;5.35;;;12.00;90.70;;;;;;5061334;28;20036;-70
2021/05/21 10:26:35;;;;;;;15.82;6.03;;;12.00;90.50;;;;;;5059747;28;20377;-65
2021/05/21 10:29:11;;;;;;;16.25;5.32;;;12.00;90.60;;;;;;5067318;28;20060;-66
2021/05/21 10:31:39;;;;;;;12.07;5.47;;;11.90;90.70;;;;;;5063389;28;20403;-69
2021/05/21 10:34:16;;;;;;;15.90;5.90;;;11.80;90.90;;;;;;5063574;28;20081;-71
2021/05/21 10:36:44;;;;;;;19.70;6.13;;;11.70;90.80;;;;;;5061632;28;20016;-69
2021/05/21 10:39:20;;;;;;;17.50;5.25;;;11.70;91.10;;;;;;5062238;28;20033;-65
2021/05/21 10:41:51;;;;;;;13.98;5.57;;;11.80;90.90;;;;;;5064777;28;20467;-69
2021/05/21 10:44:22;;;;;;;11.13;6.47;;;11.80;90.70;;;;;;5064876;28;20115;-70
2021/05/21 10:46:53;;;;;;;14.57;5.70;;;11.70;90.80;;;;;;5063522;28;20330;-70
2021/05/21 10:49:27;;;;;;;11.82;5.60;;;11.70;90.90;;;;;;5060237;28;20031;-70
2021/05/21 10:51:57;;;;;;;19.77;7.25;;;11.70;91.10;;;;;;5055824;28;20031;-69
2021/05/21 10:54:34;;;;;;;14.75;6.32;;;11.70;90.80;;;;;;5059645;28;20029;-70
2021/05/21 10:57:14;;;;;;;19.30;6.43;;;11.70;90.70;;;;;;5058312;28;20040;-67
2021/05/21 10:59:56;;;;;;;15.30;7.78;;;11.70;90.70;;;;;;5060059;28;20028;-68
2021/05/21 11:02:24;;;;;;;20.58;7.07;;;11.70;90.50;;;;;;5060367;28;20512;-68
2021/05/21 11:05:20;;;;;;;17.58;6.95;;;11.60;90.90;;;;;;5043093;28;20032;-68
2021/05/21 11:07:47;;;;;;;17.30;7.57;;;11.60;90.80;;;;;;5060725;28;20032;-69
2021/05/21 11:10:39;;;;;;;18.05;8.10;;;11.70;90.60;;;;;;5058828;28;20025;-67
2021/05/21 11:13:13;;;;;;;17.63;7.82;;;11.70;90.70;;;;;;5039503;28;20120;-68
2021/05/21 11:15:55;;;;;;;16.17;6.63;;;11.60;91.00;;;;;;5061660;28;20093;-68
2021/05/21 11:18:23;;;;;;;12.85;6.85;;;11.50;90.90;;;;;;5057224;28;20052;-68
2021/05/21 11:20:54;;;;;;;15.57;6.22;;;11.40;91.10;;;;;;5059968;28;20117;-65
2021/05/21 11:23:28;;;;;;;13.60;5.93;;;11.40;91.10;;;;;;5059998;28;20028;-72
2021/05/21 11:26:14;;;;;;;14.57;5.80;;;11.40;91.10;;;;;;5061745;28;20028;-68
2021/05/21 11:28:50;;;;;;;15.55;8.00;;;11.30;91.30;;;;;;5062976;28;20020;-70
2021/05/21 11:31:19;;;;;;;20.13;7.38;;;11.30;91.30;;;;;;5063256;28;20075;-66
2021/05/21 11:33:48;;;;;;;15.05;6.10;;;11.20;91.60;;;;;;5064600;28;20362;-68
2021/05/21 11:36:18;;;;;;;14.35;6.82;;;11.20;91.60;;;;;;5063082;28;20043;-64
2021/05/21 11:38:45;;;;;;;14.57;6.72;;;11.20;91.50;;;;;;5043041;28;20512;-65
2021/05/21 11:41:13;;;;;;;19.10;6.70;;;11.10;91.70;;;;;;5045607;28;20033;-67
2021/05/21 11:43:47;;;;;;;15.00;7.47;;;11.10;91.80;;;;;;5045267;28;20097;-67
2021/05/21 11:46:19;;;;;;;14.00;7.13;;;11.00;91.90;;;;;;5063387;28;20024;-67
2021/05/21 11:48:47;;;;;;;;;;;11.10;91.70;;;;;;5063778;28;20497;-63
2021/05/21 11:51:25;;;;;;;17.45;6.90;;;11.10;91.70;;;;;;5063760;28;20010;-69
2021/05/21 11:53:54;;;;;;;15.80;6.68;;;11.10;91.70;;;;;;5062264;28;20485;-68
2021/05/21 11:56:34;;;;;;;16.60;6.97;;;11.00;92.00;;;;;;5061580;28;20052;-64
2021/05/21 11:59:04;;;;;;;17.25;6.25;;;11.00;91.90;;;;;;5062755;28;20032;-67
2021/05/21 12:01:33;;;;;;;16.77;6.68;;;10.90;92.00;;;;;;5060726;28;20510;-62
2021/05/21 12:04:08;;;;;;;16.25;7.32;;;10.90;92.20;;;;;;5062486;28;20036;-66
2021/05/21 12:06:42;;;;;;;20.25;7.10;;;10.80;92.30;;;;;;5061767;28;20021;-63
2021/05/21 12:09:11;;;;;;;16.38;7.28;;;10.70;92.50;;;;;;5064113;28;20059;-67
2021/05/21 12:11:39;;;;;;;12.10;6.45;;;10.70;92.60;;;;;;5064844;28;20430;-65
2021/05/21 12:14:16;;;;;;;13.45;7.18;;;10.70;92.50;;;;;;5065312;28;20039;-64
2021/05/21 12:16:45;;;;;;;13.75;7.35;;;10.60;92.80;;;;;;5069882;28;20037;-65
2021/05/21 12:19:14;;;;;;;15.75;8.02;;;10.70;92.60;;;;;;5067303;28;20094;-66
2021/05/21 12:21:50;;;;;;;14.38;7.88;;;10.70;92.60;;;;;;5066554;28;20028;-69
2021/05/21 12:24:22;;;;;;;14.07;7.60;;;10.70;92.80;;;;;;5047578;28;20448;-68
2021/05/21 12:26:52;;;;;;;14.15;7.50;;;10.70;92.80;;;;;;5066751;28;20477;-69
2021/05/21 12:29:22;;;;;;;13.60;7.43;;;10.50;92.90;;;;;;5061910;28;20029;-70
2021/05/21 12:31:55;;;;;;;12.36;6.36;;;10.40;93.20;;;;;;4716485;28;10001286;-65
2021/05/21 12:34:24;;;;;;;17.58;7.95;;;10.50;93.30;;;;;;5063018;28;20032;-67
2021/05/21 12:37:01;;;;;;;20.83;8.05;;;10.50;93.00;;;;;;5063578;28;20032;-67
2021/05/21 12:39:33;;;;;;;19.02;8.85;;;10.40;93.30;;;;;;5062995;28;20573;-69
2021/05/21 12:42:02;;;;;;;17.60;7.47;;;10.50;93.10;;;;;;5060489;28;21041;-69
2021/05/21 12:44:30;;;;;;;16.33;7.68;;;10.50;93.00;;;;;;5063459;28;20029;-70
2021/05/21 12:47:01;;;;;;;14.52;7.85;;;10.50;93.20;;;;;;5063512;28;20028;-65
2021/05/21 12:49:29;;;;;;;14.80;7.70;;;10.50;93.30;;;;;;5063394;28;20021;-69
2021/05/21 12:51:58;;;;;;;13.73;7.45;;;10.40;93.50;;;;;;5063084;28;20016;-69